sensor_id;sensor_type;location;lat;lon;timestamp;temperature;humidity
74359;DHT22;62792;46.236;6.040;2023-12-04T00:03:28;18.60;38.00
74359;DHT22;62792;46.236;6.040;2023-12-04T00:08:31;18.80;38.00
74359;DHT22;62792;46.236;6.040;2023-12-04T00:13:36;18.90;37.80
74359;DHT22;62792;46.236;6.040;2023-12-04T00:18:39;19.10;37.60
74359;DHT22;62792;46.236;6.040;2023-12-04T00:23:42;19.20;37.70
74359;DHT22;62792;46.236;6.040;2023-12-04T00:28:47;19.20;37.80
74359;DHT22;62792;46.236;6.040;2023-12-04T00:33:50;19.30;37.70
74359;DHT22;62792;46.236;6.040;2023-12-04T00:38:53;19.40;37.60
74359;DHT22;62792;46.236;6.040;2023-12-04T00:43:58;19.50;37.50
74359;DHT22;62792;46.236;6.040;2023-12-04T00:49:01;19.40;37.60
74359;DHT22;62792;46.236;6.040;2023-12-04T00:54:04;19.50;37.70
74359;DHT22;62792;46.236;6.040;2023-12-04T00:59:08;19.50;37.70
74359;DHT22;62792;46.236;6.040;2023-12-04T01:04:11;19.50;37.80
74359;DHT22;62792;46.236;6.040;2023-12-04T01:09:14;19.50;37.50
74359;DHT22;62792;46.236;6.040;2023-12-04T01:14:18;19.50;37.60
74359;DHT22;62792;46.236;6.040;2023-12-04T01:19:21;19.50;37.50
74359;DHT22;62792;46.236;6.040;2023-12-04T01:24:24;19.60;37.60
74359;DHT22;62792;46.236;6.040;2023-12-04T01:29:28;19.60;37.60
74359;DHT22;62792;46.236;6.040;2023-12-04T01:34:33;19.60;37.60
74359;DHT22;62792;46.236;6.040;2023-12-04T01:39:36;19.60;37.60
74359;DHT22;62792;46.236;6.040;2023-12-04T01:44:40;19.70;37.50
74359;DHT22;62792;46.236;6.040;2023-12-04T01:49:43;19.70;37.60
74359;DHT22;62792;46.236;6.040;2023-12-04T01:54:46;19.70;37.50
74359;DHT22;62792;46.236;6.040;2023-12-04T01:59:50;19.70;37.70
74359;DHT22;62792;46.236;6.040;2023-12-04T02:04:54;19.70;37.60
74359;DHT22;62792;46.236;6.040;2023-12-04T02:09:58;19.80;37.60
74359;DHT22;62792;46.236;6.040;2023-12-04T02:15:02;19.80;37.70
74359;DHT22;62792;46.236;6.040;2023-12-04T02:20:06;19.80;37.70
74359;DHT22;62792;46.236;6.040;2023-12-04T02:25:12;19.80;37.50
74359;DHT22;62792;46.236;6.040;2023-12-04T02:30:35;19.90;37.40
74359;DHT22;62792;46.236;6.040;2023-12-04T02:35:40;19.80;37.70
74359;DHT22;62792;46.236;6.040;2023-12-04T02:40:46;19.90;37.60
74359;DHT22;62792;46.236;6.040;2023-12-04T02:45:48;19.90;37.50
74359;DHT22;62792;46.236;6.040;2023-12-04T02:50:55;19.90;37.60
74359;DHT22;62792;46.236;6.040;2023-12-04T02:55:59;19.90;37.60
74359;DHT22;62792;46.236;6.040;2023-12-04T03:01:02;20.00;37.60
74359;DHT22;62792;46.236;6.040;2023-12-04T03:06:07;19.90;37.60
74359;DHT22;62792;46.236;6.040;2023-12-04T03:11:11;20.00;37.60
74359;DHT22;62792;46.236;6.040;2023-12-04T03:16:14;20.00;37.60
74359;DHT22;62792;46.236;6.040;2023-12-04T03:21:18;19.90;37.60
74359;DHT22;62792;46.236;6.040;2023-12-04T03:26:22;19.90;37.50
74359;DHT22;62792;46.236;6.040;2023-12-04T03:31:25;19.90;37.60
74359;DHT22;62792;46.236;6.040;2023-12-04T03:36:29;20.00;37.60
74359;DHT22;62792;46.236;6.040;2023-12-04T03:41:34;20.00;37.60
74359;DHT22;62792;46.236;6.040;2023-12-04T03:46:37;20.00;37.50
74359;DHT22;62792;46.236;6.040;2023-12-04T03:51:40;20.00;37.40
74359;DHT22;62792;46.236;6.040;2023-12-04T03:56:44;20.00;37.50
74359;DHT22;62792;46.236;6.040;2023-12-04T04:01:47;20.00;37.60
74359;DHT22;62792;46.236;6.040;2023-12-04T04:06:51;20.10;37.50
74359;DHT22;62792;46.236;6.040;2023-12-04T04:11:57;20.00;37.60
74359;DHT22;62792;46.236;6.040;2023-12-04T04:17:00;20.10;37.70
74359;DHT22;62792;46.236;6.040;2023-12-04T04:22:02;20.00;37.60
74359;DHT22;62792;46.236;6.040;2023-12-04T04:27:07;20.10;37.70
74359;DHT22;62792;46.236;6.040;2023-12-04T04:32:10;20.10;37.60
74359;DHT22;62792;46.236;6.040;2023-12-04T04:37:15;20.10;37.60
74359;DHT22;62792;46.236;6.040;2023-12-04T04:42:19;20.10;37.50
74359;DHT22;62792;46.236;6.040;2023-12-04T04:47:25;20.10;37.50
74359;DHT22;62792;46.236;6.040;2023-12-04T04:52:29;20.10;37.50
74359;DHT22;62792;46.236;6.040;2023-12-04T04:57:34;20.20;37.50
74359;DHT22;62792;46.236;6.040;2023-12-04T05:02:37;20.00;37.60
74359;DHT22;62792;46.236;6.040;2023-12-04T05:07:41;20.10;37.50
74359;DHT22;62792;46.236;6.040;2023-12-04T05:12:45;20.20;37.30
74359;DHT22;62792;46.236;6.040;2023-12-04T05:17:48;20.20;37.50
74359;DHT22;62792;46.236;6.040;2023-12-04T05:22:51;20.20;37.60
74359;DHT22;62792;46.236;6.040;2023-12-04T05:27:55;20.30;37.60
74359;DHT22;62792;46.236;6.040;2023-12-04T05:32:58;20.30;37.30
74359;DHT22;62792;46.236;6.040;2023-12-04T05:38:01;20.30;37.50
74359;DHT22;62792;46.236;6.040;2023-12-04T05:43:05;20.20;37.40
74359;DHT22;62792;46.236;6.040;2023-12-04T05:48:08;20.30;37.60
74359;DHT22;62792;46.236;6.040;2023-12-04T05:53:11;20.20;37.40
74359;DHT22;62792;46.236;6.040;2023-12-04T05:58:15;20.40;37.50
74359;DHT22;62792;46.236;6.040;2023-12-04T06:03:18;20.30;37.60
74359;DHT22;62792;46.236;6.040;2023-12-04T06:08:21;20.40;37.40
74359;DHT22;62792;46.236;6.040;2023-12-04T06:13:25;20.40;37.60
74359;DHT22;62792;46.236;6.040;2023-12-04T06:18:28;20.30;37.40
74359;DHT22;62792;46.236;6.040;2023-12-04T06:23:32;20.30;37.50
74359;DHT22;62792;46.236;6.040;2023-12-04T06:28:36;20.30;37.60
74359;DHT22;62792;46.236;6.040;2023-12-04T06:33:41;20.40;37.50
74359;DHT22;62792;46.236;6.040;2023-12-04T06:38:47;20.40;37.60
74359;DHT22;62792;46.236;6.040;2023-12-04T06:43:52;20.40;37.50
74359;DHT22;62792;46.236;6.040;2023-12-04T06:48:55;20.50;37.40
74359;DHT22;62792;46.236;6.040;2023-12-04T06:54:00;20.40;37.60
74359;DHT22;62792;46.236;6.040;2023-12-04T06:59:05;20.40;37.50
74359;DHT22;62792;46.236;6.040;2023-12-04T07:04:08;20.40;37.50
74359;DHT22;62792;46.236;6.040;2023-12-04T07:09:12;20.40;37.40
74359;DHT22;62792;46.236;6.040;2023-12-04T07:14:18;20.40;37.60
74359;DHT22;62792;46.236;6.040;2023-12-04T07:19:21;20.50;38.50
74359;DHT22;62792;46.236;6.040;2023-12-04T07:24:24;20.70;38.30
74359;DHT22;62792;46.236;6.040;2023-12-04T07:29:29;20.90;38.90
74359;DHT22;62792;46.236;6.040;2023-12-04T07:34:32;21.10;38.50
74359;DHT22;62792;46.236;6.040;2023-12-04T07:39:35;21.40;39.00
74359;DHT22;62792;46.236;6.040;2023-12-04T07:44:40;21.20;38.70
74359;DHT22;62792;46.236;6.040;2023-12-04T07:49:44;21.00;38.40
74359;DHT22;62792;46.236;6.040;2023-12-04T07:54:47;21.00;38.30
74359;DHT22;62792;46.236;6.040;2023-12-04T07:59:53;21.30;38.40
74359;DHT22;62792;46.236;6.040;2023-12-04T08:04:56;21.50;38.40
74359;DHT22;62792;46.236;6.040;2023-12-04T08:09:59;21.50;39.10
74359;DHT22;62792;46.236;6.040;2023-12-04T08:15:04;21.60;38.70
74359;DHT22;62792;46.236;6.040;2023-12-04T08:20:08;21.40;38.70
74359;DHT22;62792;46.236;6.040;2023-12-04T08:25:22;21.30;38.40
74359;DHT22;62792;46.236;6.040;2023-12-04T08:30:28;21.50;38.50
74359;DHT22;62792;46.236;6.040;2023-12-04T08:35:32;21.60;38.10
74359;DHT22;62792;46.236;6.040;2023-12-04T08:40:35;21.80;38.90
74359;DHT22;62792;46.236;6.040;2023-12-04T08:45:40;21.80;38.40
74359;DHT22;62792;46.236;6.040;2023-12-04T08:50:43;21.80;38.20
74359;DHT22;62792;46.236;6.040;2023-12-04T08:55:46;21.80;38.40
74359;DHT22;62792;46.236;6.040;2023-12-04T09:00:51;21.60;38.20
74359;DHT22;62792;46.236;6.040;2023-12-04T09:05:54;21.50;38.20
74359;DHT22;62792;46.236;6.040;2023-12-04T09:10:57;21.50;38.20
74359;DHT22;62792;46.236;6.040;2023-12-04T09:16:20;21.40;38.20
74359;DHT22;62792;46.236;6.040;2023-12-04T09:21:23;21.50;38.10
74359;DHT22;62792;46.236;6.040;2023-12-04T09:26:26;21.70;38.10
74359;DHT22;62792;46.236;6.040;2023-12-04T09:31:30;21.80;38.30
74359;DHT22;62792;46.236;6.040;2023-12-04T09:36:33;22.00;38.40
74359;DHT22;62792;46.236;6.040;2023-12-04T09:41:36;22.10;38.60
74359;DHT22;62792;46.236;6.040;2023-12-04T09:46:41;21.90;38.50
74359;DHT22;62792;46.236;6.040;2023-12-04T09:51:44;21.80;38.40
74359;DHT22;62792;46.236;6.040;2023-12-04T09:56:47;21.70;38.10
74359;DHT22;62792;46.236;6.040;2023-12-04T10:01:53;21.70;38.00
74359;DHT22;62792;46.236;6.040;2023-12-04T10:06:56;21.70;38.10
74359;DHT22;62792;46.236;6.040;2023-12-04T10:11:59;21.60;38.30
74359;DHT22;62792;46.236;6.040;2023-12-04T10:17:14;21.70;38.10
74359;DHT22;62792;46.236;6.040;2023-12-04T10:22:19;21.70;38.20
74359;DHT22;62792;46.236;6.040;2023-12-04T10:27:26;21.80;38.70
74359;DHT22;62792;46.236;6.040;2023-12-04T10:32:30;21.90;38.60
74359;DHT22;62792;46.236;6.040;2023-12-04T10:37:33;22.10;38.40
74359;DHT22;62792;46.236;6.040;2023-12-04T10:42:38;22.00;38.30
74359;DHT22;62792;46.236;6.040;2023-12-04T10:47:42;21.90;38.40
74359;DHT22;62792;46.236;6.040;2023-12-04T10:52:47;21.90;38.20
74359;DHT22;62792;46.236;6.040;2023-12-04T10:57:50;21.90;38.40
74359;DHT22;62792;46.236;6.040;2023-12-04T11:02:56;21.80;38.40
74359;DHT22;62792;46.236;6.040;2023-12-04T11:08:00;21.80;38.10
74359;DHT22;62792;46.236;6.040;2023-12-04T11:13:23;21.80;38.50
74359;DHT22;62792;46.236;6.040;2023-12-04T11:18:32;22.10;38.60
74359;DHT22;62792;46.236;6.040;2023-12-04T11:23:40;22.10;38.60
74359;DHT22;62792;46.236;6.040;2023-12-04T11:28:44;22.20;38.60
74359;DHT22;62792;46.236;6.040;2023-12-04T11:33:49;22.30;38.80
74359;DHT22;62792;46.236;6.040;2023-12-04T11:38:52;22.30;38.80
74359;DHT22;62792;46.236;6.040;2023-12-04T11:43:55;22.40;38.80
74359;DHT22;62792;46.236;6.040;2023-12-04T12:00:12;22.50;39.20
74359;DHT22;62792;46.236;6.040;2023-12-04T12:05:20;22.50;39.10
74359;DHT22;62792;46.236;6.040;2023-12-04T12:10:23;22.50;39.30
74359;DHT22;62792;46.236;6.040;2023-12-04T12:15:26;22.60;39.10
74359;DHT22;62792;46.236;6.040;2023-12-04T12:20:32;22.50;38.60
74359;DHT22;62792;46.236;6.040;2023-12-04T12:25:35;22.60;39.20
74359;DHT22;62792;46.236;6.040;2023-12-04T12:30:38;22.60;38.60
74359;DHT22;62792;46.236;6.040;2023-12-04T12:35:45;22.60;38.40
74359;DHT22;62792;46.236;6.040;2023-12-04T12:41:00;22.60;38.30
74359;DHT22;62792;46.236;6.040;2023-12-04T12:46:04;22.60;38.40
74359;DHT22;62792;46.236;6.040;2023-12-04T12:51:09;22.70;38.20
74359;DHT22;62792;46.236;6.040;2023-12-04T12:56:12;22.60;38.60
74359;DHT22;62792;46.236;6.040;2023-12-04T13:01:15;22.60;38.80
74359;DHT22;62792;46.236;6.040;2023-12-04T13:06:19;22.80;38.60
74359;DHT22;62792;46.236;6.040;2023-12-04T13:11:22;22.80;38.80
74359;DHT22;62792;46.236;6.040;2023-12-04T13:16:25;22.80;38.40
74359;DHT22;62792;46.236;6.040;2023-12-04T13:21:30;22.80;38.90
74359;DHT22;62792;46.236;6.040;2023-12-04T13:26:33;22.80;38.30
74359;DHT22;62792;46.236;6.040;2023-12-04T13:31:36;22.70;38.50
74359;DHT22;62792;46.236;6.040;2023-12-04T13:36:40;22.80;38.90
74359;DHT22;62792;46.236;6.040;2023-12-04T13:41:43;22.70;38.70
74359;DHT22;62792;46.236;6.040;2023-12-04T13:47:04;22.80;38.90
74359;DHT22;62792;46.236;6.040;2023-12-04T13:52:09;22.90;38.90
74359;DHT22;62792;46.236;6.040;2023-12-04T13:57:12;22.90;38.80
74359;DHT22;62792;46.236;6.040;2023-12-04T14:02:22;22.80;38.80
74359;DHT22;62792;46.236;6.040;2023-12-04T14:07:27;22.70;38.90
74359;DHT22;62792;46.236;6.040;2023-12-04T14:12:30;22.80;38.80
74359;DHT22;62792;46.236;6.040;2023-12-04T14:17:33;23.00;38.70
74359;DHT22;62792;46.236;6.040;2023-12-04T14:22:37;23.00;38.90
74359;DHT22;62792;46.236;6.040;2023-12-04T14:27:40;23.10;38.70
74359;DHT22;62792;46.236;6.040;2023-12-04T14:32:46;23.10;38.70
74359;DHT22;62792;46.236;6.040;2023-12-04T14:37:50;23.10;38.60
74359;DHT22;62792;46.236;6.040;2023-12-04T14:42:53;23.10;38.90
74359;DHT22;62792;46.236;6.040;2023-12-04T14:47:57;23.10;38.90
74359;DHT22;62792;46.236;6.040;2023-12-04T14:53:02;23.00;39.10
74359;DHT22;62792;46.236;6.040;2023-12-04T14:58:17;23.10;38.60
74359;DHT22;62792;46.236;6.040;2023-12-04T15:03:46;23.10;38.70
74359;DHT22;62792;46.236;6.040;2023-12-04T15:09:14;23.00;38.80
74359;DHT22;62792;46.236;6.040;2023-12-04T15:15:03;23.20;38.50
74359;DHT22;62792;46.236;6.040;2023-12-04T15:20:16;23.10;38.70
74359;DHT22;62792;46.236;6.040;2023-12-04T15:25:35;23.10;38.80
74359;DHT22;62792;46.236;6.040;2023-12-04T15:30:39;23.20;38.90
74359;DHT22;62792;46.236;6.040;2023-12-04T15:35:43;23.10;38.80
74359;DHT22;62792;46.236;6.040;2023-12-04T15:40:47;23.20;38.70
74359;DHT22;62792;46.236;6.040;2023-12-04T15:45:50;23.10;38.50
74359;DHT22;62792;46.236;6.040;2023-12-04T15:50:53;23.30;38.60
74359;DHT22;62792;46.236;6.040;2023-12-04T15:55:57;23.20;38.50
74359;DHT22;62792;46.236;6.040;2023-12-04T16:01:01;23.30;38.70
74359;DHT22;62792;46.236;6.040;2023-12-04T16:06:07;23.40;38.90
74359;DHT22;62792;46.236;6.040;2023-12-04T16:11:13;23.40;39.00
74359;DHT22;62792;46.236;6.040;2023-12-04T16:16:19;23.40;38.80
74359;DHT22;62792;46.236;6.040;2023-12-04T16:21:22;23.40;38.60
74359;DHT22;62792;46.236;6.040;2023-12-04T16:26:27;23.50;38.80
74359;DHT22;62792;46.236;6.040;2023-12-04T16:31:29;23.40;38.70
74359;DHT22;62792;46.236;6.040;2023-12-04T16:36:32;23.30;38.90
74359;DHT22;62792;46.236;6.040;2023-12-04T16:41:37;23.30;38.80
74359;DHT22;62792;46.236;6.040;2023-12-04T16:46:40;23.20;38.90
74359;DHT22;62792;46.236;6.040;2023-12-04T16:51:42;23.10;38.90
74359;DHT22;62792;46.236;6.040;2023-12-04T16:56:48;23.10;39.00
74359;DHT22;62792;46.236;6.040;2023-12-04T17:01:51;23.10;39.00
74359;DHT22;62792;46.236;6.040;2023-12-04T17:06:54;23.00;39.00
74359;DHT22;62792;46.236;6.040;2023-12-04T17:11:59;23.00;39.00
74359;DHT22;62792;46.236;6.040;2023-12-04T17:17:02;23.00;38.90
74359;DHT22;62792;46.236;6.040;2023-12-04T17:22:06;23.00;38.90
74359;DHT22;62792;46.236;6.040;2023-12-04T17:27:11;22.90;38.90
74359;DHT22;62792;46.236;6.040;2023-12-04T17:32:14;22.90;39.00
74359;DHT22;62792;46.236;6.040;2023-12-04T17:37:16;23.00;38.80
74359;DHT22;62792;46.236;6.040;2023-12-04T17:42:21;22.90;38.90
74359;DHT22;62792;46.236;6.040;2023-12-04T17:47:24;22.90;38.80
74359;DHT22;62792;46.236;6.040;2023-12-04T17:52:27;23.00;38.90
74359;DHT22;62792;46.236;6.040;2023-12-04T17:57:31;23.00;38.90
74359;DHT22;62792;46.236;6.040;2023-12-04T18:02:34;22.90;38.90
74359;DHT22;62792;46.236;6.040;2023-12-04T18:07:38;23.00;38.80
74359;DHT22;62792;46.236;6.040;2023-12-04T18:12:42;22.90;38.80
74359;DHT22;62792;46.236;6.040;2023-12-04T18:17:45;22.80;38.90
74359;DHT22;62792;46.236;6.040;2023-12-04T18:22:48;22.70;39.00
74359;DHT22;62792;46.236;6.040;2023-12-04T18:27:55;22.70;38.90
74359;DHT22;62792;46.236;6.040;2023-12-04T18:33:00;22.70;39.00
74359;DHT22;62792;46.236;6.040;2023-12-04T18:38:05;22.60;39.10
74359;DHT22;62792;46.236;6.040;2023-12-04T18:43:10;22.50;38.90
74359;DHT22;62792;46.236;6.040;2023-12-04T18:48:14;22.40;39.10
74359;DHT22;62792;46.236;6.040;2023-12-04T18:53:19;22.20;39.10
74359;DHT22;62792;46.236;6.040;2023-12-04T18:58:24;22.20;39.40
74359;DHT22;62792;46.236;6.040;2023-12-04T19:03:28;22.20;39.00
74359;DHT22;62792;46.236;6.040;2023-12-04T19:08:31;22.00;39.00
74359;DHT22;62792;46.236;6.040;2023-12-04T19:13:36;22.10;39.10
74359;DHT22;62792;46.236;6.040;2023-12-04T19:18:39;22.00;38.90
74359;DHT22;62792;46.236;6.040;2023-12-04T19:23:42;21.80;39.30
74359;DHT22;62792;46.236;6.040;2023-12-04T19:28:48;21.80;38.90
74359;DHT22;62792;46.236;6.040;2023-12-04T19:33:51;21.80;39.00
74359;DHT22;62792;46.236;6.040;2023-12-04T19:38:54;21.70;39.10
74359;DHT22;62792;46.236;6.040;2023-12-04T19:43:58;21.70;39.10
74359;DHT22;62792;46.236;6.040;2023-12-04T19:49:01;21.60;39.00
74359;DHT22;62792;46.236;6.040;2023-12-04T19:54:05;21.60;39.30
74359;DHT22;62792;46.236;6.040;2023-12-04T19:59:10;21.50;39.20
74359;DHT22;62792;46.236;6.040;2023-12-04T20:04:13;21.40;39.40
74359;DHT22;62792;46.236;6.040;2023-12-04T20:09:16;21.40;39.40
74359;DHT22;62792;46.236;6.040;2023-12-04T20:14:22;21.30;39.50
74359;DHT22;62792;46.236;6.040;2023-12-04T20:19:25;21.30;39.30
74359;DHT22;62792;46.236;6.040;2023-12-04T20:24:28;21.20;39.50
74359;DHT22;62792;46.236;6.040;2023-12-04T20:29:32;21.20;39.60
74359;DHT22;62792;46.236;6.040;2023-12-04T20:34:36;21.10;39.50
74359;DHT22;62792;46.236;6.040;2023-12-04T20:39:39;21.10;39.40
74359;DHT22;62792;46.236;6.040;2023-12-04T20:44:44;21.10;39.70
74359;DHT22;62792;46.236;6.040;2023-12-04T20:49:47;21.10;39.60
74359;DHT22;62792;46.236;6.040;2023-12-04T20:54:50;21.10;39.90
74359;DHT22;62792;46.236;6.040;2023-12-04T20:59:55;21.00;39.60
74359;DHT22;62792;46.236;6.040;2023-12-04T21:04:57;21.00;39.70
74359;DHT22;62792;46.236;6.040;2023-12-04T21:10:01;21.10;39.70
74359;DHT22;62792;46.236;6.040;2023-12-04T21:15:08;21.00;39.90
74359;DHT22;62792;46.236;6.040;2023-12-04T21:20:11;20.90;39.90
74359;DHT22;62792;46.236;6.040;2023-12-04T21:25:15;20.80;40.50
74359;DHT22;62792;46.236;6.040;2023-12-04T21:30:19;20.90;40.60
74359;DHT22;62792;46.236;6.040;2023-12-04T21:35:23;20.80;40.60
74359;DHT22;62792;46.236;6.040;2023-12-04T21:40:26;20.80;40.80
74359;DHT22;62792;46.236;6.040;2023-12-04T21:45:30;20.90;40.60
74359;DHT22;62792;46.236;6.040;2023-12-04T21:50:33;20.80;40.70
74359;DHT22;62792;46.236;6.040;2023-12-04T21:55:36;20.80;40.60
74359;DHT22;62792;46.236;6.040;2023-12-04T22:00:40;20.80;40.50
74359;DHT22;62792;46.236;6.040;2023-12-04T22:05:43;20.80;40.70
74359;DHT22;62792;46.236;6.040;2023-12-04T22:10:46;20.80;40.80
74359;DHT22;62792;46.236;6.040;2023-12-04T22:15:50;20.80;40.80
74359;DHT22;62792;46.236;6.040;2023-12-04T22:20:55;20.80;40.80
74359;DHT22;62792;46.236;6.040;2023-12-04T22:25:59;20.70;40.80
74359;DHT22;62792;46.236;6.040;2023-12-04T22:31:04;20.70;41.00
74359;DHT22;62792;46.236;6.040;2023-12-04T22:36:08;20.70;40.80
74359;DHT22;62792;46.236;6.040;2023-12-04T22:41:12;20.70;41.00
74359;DHT22;62792;46.236;6.040;2023-12-04T22:46:16;20.70;41.10
74359;DHT22;62792;46.236;6.040;2023-12-04T22:51:19;20.80;41.00
74359;DHT22;62792;46.236;6.040;2023-12-04T22:56:22;20.60;41.10
74359;DHT22;62792;46.236;6.040;2023-12-04T23:01:27;20.70;41.10
74359;DHT22;62792;46.236;6.040;2023-12-04T23:06:30;20.70;41.00
74359;DHT22;62792;46.236;6.040;2023-12-04T23:11:33;20.60;41.20
74359;DHT22;62792;46.236;6.040;2023-12-04T23:16:41;20.50;41.00
74359;DHT22;62792;46.236;6.040;2023-12-04T23:21:44;20.60;41.30
74359;DHT22;62792;46.236;6.040;2023-12-04T23:26:48;20.70;41.10
74359;DHT22;62792;46.236;6.040;2023-12-04T23:31:53;20.70;41.00
74359;DHT22;62792;46.236;6.040;2023-12-04T23:36:56;20.70;41.00
74359;DHT22;62792;46.236;6.040;2023-12-04T23:41:59;20.60;41.20
74359;DHT22;62792;46.236;6.040;2023-12-04T23:47:03;20.60;41.10
74359;DHT22;62792;46.236;6.040;2023-12-04T23:52:07;20.60;41.10
74359;DHT22;62792;46.236;6.040;2023-12-04T23:57:10;20.60;41.30
